TimeCST,TemperatureF,Dew PointF,Humidity,Sea Level PressureIn,VisibilityMPH,Wind Direction,Wind SpeedMPH,Gust SpeedMPH,PrecipitationIn,Events,Conditions,WindDirDegrees,DateUTC
12:00 AM,60.8,59.0,94,30.24,6.2,North,9.2,-,N/A,,Mostly Cloudy,360,2013-08-14 06:00:00
1:00 AM,60.8,59.0,94,30.24,6.2,NNE,9.2,-,N/A,,Mostly Cloudy,20,2013-08-14 07:00:00
2:00 AM,60.8,57.2,88,30.21,6.2,NNE,11.5,-,N/A,,Mostly Cloudy,30,2013-08-14 08:00:00
2:32 AM,-9999,-9999,N/A,-9999,6.2,NNE,6.9,-,N/A,,Partly Cloudy,20,2013-08-14 08:32:00
3:00 AM,60.8,59.0,94,30.18,6.2,NNE,6.9,-,N/A,,Mostly Cloudy,20,2013-08-14 09:00:00
4:00 AM,60.8,57.2,88,30.21,6.2,NNE,6.9,-,N/A,,Mostly Cloudy,20,2013-08-14 10:00:00
5:00 AM,60.8,57.2,88,30.21,-9999.0,NNE,9.2,-,N/A,,Clear,20,2013-08-14 11:00:00
5:40 AM,-9999,-9999,N/A,-9999,6.2,NNE,13.8,-,N/A,,Scattered Clouds,20,2013-08-14 11:40:00
6:00 AM,60,57,87,29.93,25,NNE,11.5,,,,Partly Cloudy,20,2013-08-14 12:00:00
6:00 AM,60.8,57.2,88,30.21,6.2,NNE,11.5,-,N/A,,Scattered Clouds,20,2013-08-14 12:00:00
7:00 AM,62.6,57.2,82,30.24,-9999.0,North,9.2,-,N/A,,Clear,360,2013-08-14 13:00:00
8:00 AM,66.2,59.0,78,30.24,6.2,North,11.5,-,N/A,,Scattered Clouds,360,2013-08-14 14:00:00
9:00 AM,68.0,59.0,73,30.24,6.2,North,16.1,-,N/A,,Scattered Clouds,360,2013-08-14 15:00:00
10:00 AM,69.8,59.0,68,30.24,6.2,North,16.1,-,N/A,,Scattered Clouds,360,2013-08-14 16:00:00
11:00 AM,71.6,59.0,64,30.24,6.2,North,13.8,-,N/A,,Scattered Clouds,360,2013-08-14 17:00:00
12:00 PM,73.4,59.0,61,30.21,6.2,North,16.1,-,N/A,,Scattered Clouds,360,2013-08-14 18:00:00
1:00 PM,75.2,59.0,57,30.18,6.2,North,9.2,-,N/A,,Scattered Clouds,360,2013-08-14 19:00:00
2:00 PM,75.2,59.0,57,30.18,6.2,North,13.8,-,N/A,,Partly Cloudy,360,2013-08-14 20:00:00
3:00 PM,75.2,60.8,61,30.15,6.2,North,13.8,-,N/A,,Partly Cloudy,360,2013-08-14 21:00:00
4:00 PM,75.2,60.8,61,30.12,6.2,NNE,11.5,-,N/A,,Partly Cloudy,20,2013-08-14 22:00:00
5:00 PM,75.2,59.0,57,30.12,6.2,NNE,9.2,-,N/A,,Scattered Clouds,20,2013-08-14 23:00:00
6:00 PM,,,,29.84,25,North,13.8,,,,Partly Cloudy,0,2013-08-15 00:00:00
6:00 PM,73.4,59.0,61,30.15,6.2,North,13.8,-,N/A,,Scattered Clouds,360,2013-08-15 00:00:00
7:00 PM,68.0,62.6,83,30.21,6.2,North,13.8,-,N/A,,Partly Cloudy,360,2013-08-15 01:00:00
8:00 PM,68.0,62.6,83,30.21,6.2,North,13.8,-,N/A,,Partly Cloudy,360,2013-08-15 02:00:00
9:00 PM,68.0,62.6,83,30.24,-9999.0,North,13.8,-,N/A,,Clear,360,2013-08-15 03:00:00
10:00 PM,66.2,62.6,88,30.24,6.2,North,11.5,-,N/A,,Scattered Clouds,360,2013-08-15 04:00:00
11:00 PM,66.2,62.6,88,30.24,6.2,North,11.5,-,N/A,,Mostly Cloudy,360,2013-08-15 05:00:00